Wahpeton, Iowa
Current Conditions -  °F | °C
As of 3:53 PM on Thursday 25 Dec 2014 (Local Time) from KMJQ Reporting Station
Scattered Clouds Scattered Clouds  
Wind Chill: -2°   Ceiling: Unl
Heat Index:   Visibility: 10mi
Dew Point: -1°   Wind: 7mph
Humidity: 87%   Direction: 50°NE
Pressure: 29.71"   Gusts: NA
Location:  43.4265°N, 95.1547°W
Report Text: KMJQ 252153Z AUTO 05006KT 10SM SCT017 01/M01 A2971 RMK AO2
Loading
Personal Weather Stations






























Interactive Weather Map New forecast layout! Learn more

10-Day Weather Forecast

Advertisements
Track Severe Weather on mobile